createdAt,value
2022-10-14T00:01:22.707Z,74.30
2022-10-14T00:03:51.740Z,74.91
2022-10-14T00:06:22.933Z,74.80
2022-10-14T00:08:50.986Z,75.26
2022-10-14T00:11:22.757Z,75.46
2022-10-14T00:13:51.594Z,75.33
2022-10-14T00:16:22.110Z,75.32
2022-10-14T00:18:50.571Z,75.62
2022-10-14T00:21:18.805Z,75.63
2022-10-14T00:23:47.691Z,75.77
2022-10-14T00:26:18.772Z,75.69
2022-10-14T00:28:48.422Z,76.34
2022-10-14T00:31:16.783Z,76.86
2022-10-14T00:33:48.666Z,76.94
2022-10-14T00:36:18.838Z,78.53
2022-10-14T00:38:47.517Z,78.77
2022-10-14T00:41:18.570Z,78.19
2022-10-14T00:44:01.246Z,78.01
2022-10-14T00:46:32.213Z,77.74
2022-10-14T00:49:07.217Z,78.58
2022-10-14T00:51:37.322Z,78.69
2022-10-14T00:54:05.819Z,78.59
2022-10-14T00:56:34.550Z,78.30
2022-10-14T00:59:07.732Z,78.11
2022-10-14T01:01:36.228Z,78.17
2022-10-14T01:04:04.746Z,78.15
2022-10-14T01:06:42.710Z,77.37
2022-10-14T01:09:20.339Z,77.53
2022-10-14T01:12:16.176Z,76.95
2022-10-14T01:14:52.837Z,77.11
2022-10-14T01:17:36.086Z,76.47
2022-10-14T01:20:40.169Z,76.24
2022-10-14T01:23:33.170Z,75.69
2022-10-14T01:26:17.518Z,75.94
2022-10-14T01:28:52.689Z,75.63
2022-10-14T01:31:25.436Z,75.86
2022-10-14T01:33:58.082Z,76.02
2022-10-14T01:36:32.152Z,76.36
2022-10-14T01:39:08.122Z,75.99
2022-10-14T01:41:40.779Z,75.90
2022-10-14T01:44:12.123Z,76.22
2022-10-14T01:46:47.705Z,75.87
2022-10-14T01:49:20.926Z,76.52
2022-10-14T01:51:53.742Z,76.48
2022-10-14T01:54:27.407Z,77.22
2022-10-14T01:56:59.379Z,77.68
2022-10-14T01:59:28.493Z,76.96
2022-10-14T02:01:59.062Z,76.49
2022-10-14T02:04:27.184Z,76.46
2022-10-14T02:07:04.411Z,76.49
2022-10-14T02:09:39.411Z,76.72
2022-10-14T02:12:19.882Z,77.10
2022-10-14T02:14:57.586Z,77.05
2022-10-14T02:17:34.099Z,76.91
2022-10-14T02:20:07.078Z,77.25
2022-10-14T02:22:39.303Z,76.72
2022-10-14T02:25:14.138Z,77.09
2022-10-14T02:27:44.676Z,77.26
2022-10-14T02:30:14.324Z,77.13
2022-10-14T02:32:44.654Z,77.03
2022-10-14T02:35:17.168Z,77.32
2022-10-14T02:37:49.382Z,77.36
2022-10-14T02:40:22.430Z,77.44
2022-10-14T02:42:50.593Z,77.63
2022-10-14T02:45:20.351Z,77.63
2022-10-14T02:47:49.885Z,77.23
2022-10-14T02:50:19.159Z,77.43
2022-10-14T02:52:47.427Z,77.65
2022-10-14T02:55:15.642Z,77.75
2022-10-14T02:57:45.485Z,77.73
2022-10-14T03:00:14.476Z,77.86
2022-10-14T03:02:44.020Z,78.24
2022-10-14T03:05:13.577Z,78.13
2022-10-14T03:07:41.912Z,78.55
2022-10-14T03:10:13.377Z,78.42
2022-10-14T03:12:41.704Z,78.02
2022-10-14T03:15:17.418Z,78.15
2022-10-14T03:17:45.412Z,78.11
2022-10-14T03:20:18.118Z,78.23
2022-10-14T03:22:52.192Z,77.79
2022-10-14T03:25:20.295Z,77.92
2022-10-14T03:28:03.419Z,77.39
2022-10-14T03:30:41.173Z,77.55
2022-10-14T03:33:15.577Z,77.82
2022-10-14T03:35:51.035Z,77.73
2022-10-14T03:38:24.521Z,77.38
2022-10-14T03:40:54.929Z,77.40
2022-10-14T03:43:23.045Z,77.25
2022-10-14T03:45:56.508Z,77.30
2022-10-14T03:48:26.068Z,77.37
2022-10-14T03:50:59.341Z,77.59
2022-10-14T03:53:27.572Z,77.47
2022-10-14T03:55:56.085Z,77.27
2022-10-14T03:58:24.088Z,77.04
2022-10-14T04:00:58.497Z,77.50
2022-10-14T04:03:35.428Z,77.07
2022-10-14T04:06:05.185Z,77.41
2022-10-14T04:08:33.228Z,77.38
2022-10-14T04:11:14.229Z,77.33
2022-10-14T04:13:42.356Z,77.29
2022-10-14T04:16:12.208Z,77.07
2022-10-14T04:18:59.621Z,76.93
2022-10-14T04:21:29.179Z,76.84
2022-10-14T04:23:58.643Z,76.60
2022-10-14T04:26:38.515Z,76.21
2022-10-14T04:29:13.334Z,76.59
2022-10-14T04:31:52.049Z,76.40
2022-10-14T04:34:20.513Z,76.68
2022-10-14T04:36:50.051Z,76.48
2022-10-14T04:39:42.947Z,76.69
2022-10-14T04:42:11.321Z,76.92
2022-10-14T04:44:39.748Z,77.01
2022-10-14T04:47:07.864Z,77.04
2022-10-14T04:49:35.888Z,76.71
2022-10-14T04:52:12.441Z,76.79
2022-10-14T04:54:55.459Z,76.75
2022-10-14T04:57:34.532Z,76.78
2022-10-14T05:00:03.481Z,77.01
2022-10-14T05:02:46.524Z,76.54
2022-10-14T05:05:15.992Z,76.45
2022-10-14T05:07:48.290Z,76.48
2022-10-14T05:10:26.492Z,76.68
2022-10-14T05:12:55.459Z,76.58
2022-10-14T05:15:26.262Z,76.55
2022-10-14T05:18:04.611Z,77.01
2022-10-14T05:20:51.600Z,77.05
2022-10-14T05:23:25.459Z,76.82
2022-10-14T05:25:54.750Z,76.67
2022-10-14T05:28:24.183Z,76.70
2022-10-14T05:30:52.296Z,76.88
2022-10-14T05:33:21.485Z,77.08
2022-10-14T05:36:04.893Z,76.76
2022-10-14T05:38:36.523Z,76.82
2022-10-14T05:41:05.414Z,77.06
2022-10-14T05:43:33.935Z,77.14
2022-10-14T05:46:05.635Z,77.27
2022-10-14T05:48:38.269Z,77.36
2022-10-14T05:51:07.130Z,77.20
2022-10-14T05:53:39.978Z,77.08
2022-10-14T05:56:13.422Z,77.55
2022-10-14T05:58:42.260Z,77.96
2022-10-14T06:01:12.478Z,77.27
2022-10-14T06:03:42.856Z,77.08
2022-10-14T06:06:14.189Z,77.40
2022-10-14T06:08:45.157Z,76.49
2022-10-14T06:11:13.819Z,76.58
2022-10-14T06:13:42.097Z,76.54
2022-10-14T06:16:12.048Z,79.36
2022-10-14T06:18:40.794Z,79.27
2022-10-14T06:21:09.108Z,78.04
2022-10-14T06:23:37.152Z,78.39
2022-10-14T06:26:09.105Z,78.26
2022-10-14T06:28:37.224Z,78.13
2022-10-14T06:31:06.127Z,77.54
2022-10-14T06:33:35.674Z,77.87
2022-10-14T06:36:04.671Z,77.17
2022-10-14T06:38:32.695Z,77.26
2022-10-14T06:41:01.063Z,77.58
2022-10-14T06:43:30.426Z,77.38
2022-10-14T06:45:59.671Z,76.48
2022-10-14T06:48:28.038Z,76.09
2022-10-14T06:50:57.067Z,76.10
2022-10-14T06:53:25.139Z,76.80
2022-10-14T06:56:00.238Z,76.45
2022-10-14T06:58:30.797Z,76.26
2022-10-14T07:01:03.067Z,75.49
2022-10-14T07:03:31.316Z,75.76
2022-10-14T07:06:05.875Z,75.88
2022-10-14T07:08:38.156Z,75.37
2022-10-14T07:11:09.858Z,74.59
2022-10-14T07:13:43.184Z,75.03
2022-10-14T07:16:16.146Z,75.03
2022-10-14T07:18:44.803Z,74.41
2022-10-14T07:21:12.844Z,74.63
2022-10-14T07:23:40.904Z,74.47
2022-10-14T07:26:08.970Z,74.34
2022-10-14T07:28:37.113Z,74.16
2022-10-14T07:31:08.813Z,74.40
2022-10-14T07:36:14.278Z,74.31
2022-10-14T07:38:44.912Z,74.33
2022-10-14T07:41:18.219Z,74.03
2022-10-14T07:43:47.052Z,74.29
2022-10-14T07:46:17.883Z,74.33
2022-10-14T07:48:56.541Z,74.74
2022-10-14T07:51:25.621Z,74.13
2022-10-14T07:53:53.993Z,74.13
2022-10-14T07:56:22.508Z,73.52
2022-10-14T07:58:50.520Z,72.77
2022-10-14T08:01:20.747Z,72.79
2022-10-14T08:03:49.968Z,72.34
2022-10-14T08:06:18.662Z,71.59
2022-10-14T08:08:46.759Z,71.20
2022-10-14T08:11:16.975Z,71.27
2022-10-14T08:13:46.328Z,70.47
2022-10-14T08:16:21.355Z,69.71
2022-10-14T08:18:49.769Z,69.55
2022-10-14T08:21:18.937Z,69.47
2022-10-14T08:23:47.259Z,69.45
2022-10-14T08:26:24.058Z,69.08
2022-10-14T08:28:52.837Z,68.60
2022-10-14T08:31:22.836Z,68.01
2022-10-14T08:33:50.869Z,67.32
2022-10-14T08:36:20.243Z,66.29
2022-10-14T08:38:48.416Z,65.92
2022-10-14T08:41:33.850Z,66.11
2022-10-14T08:44:13.684Z,65.54
2022-10-14T08:46:51.157Z,66.05
2022-10-14T08:49:27.059Z,65.33
2022-10-14T08:52:01.057Z,67.93
2022-10-14T08:54:37.978Z,66.63
2022-10-14T08:57:13.183Z,65.50
2022-10-14T08:59:43.335Z,65.64
2022-10-14T09:02:35.815Z,65.47
2022-10-14T09:05:05.395Z,65.94
2022-10-14T09:07:36.063Z,67.41
2022-10-14T09:10:08.548Z,67.15
2022-10-14T09:12:37.876Z,67.08
2022-10-14T09:15:13.605Z,66.54
2022-10-14T09:17:45.567Z,65.78
2022-10-14T09:20:20.604Z,65.34
2022-10-14T09:23:00.924Z,65.66
2022-10-14T09:25:31.586Z,65.48
2022-10-14T09:27:59.687Z,64.37
2022-10-14T09:30:31.414Z,63.85
2022-10-14T09:33:01.012Z,64.75
2022-10-14T09:35:33.528Z,63.17
2022-10-14T09:38:01.728Z,63.11
2022-10-14T09:40:33.718Z,62.03
2022-10-14T09:43:06.698Z,61.78
2022-10-14T09:45:50.172Z,61.53
2022-10-14T09:48:26.423Z,61.32
2022-10-14T09:50:56.862Z,60.71
2022-10-14T09:53:30.036Z,59.94
2022-10-14T09:55:59.913Z,59.89
2022-10-14T09:58:32.963Z,59.44
2022-10-14T10:01:03.020Z,58.89
2022-10-14T10:03:35.119Z,58.29
2022-10-14T10:06:06.967Z,56.92
2022-10-14T10:08:37.101Z,57.47
2022-10-14T10:11:08.381Z,57.59
2022-10-14T10:13:40.605Z,56.42
2022-10-14T10:16:19.420Z,56.52
2022-10-14T10:18:49.056Z,56.11
2022-10-14T10:21:20.150Z,55.87
2022-10-14T10:23:54.901Z,58.86
2022-10-14T10:26:27.254Z,59.04
2022-10-14T10:28:58.060Z,57.55
2022-10-14T10:31:44.017Z,56.95
2022-10-14T10:34:53.970Z,55.88
2022-10-14T10:37:30.878Z,56.64
2022-10-14T10:40:32.175Z,55.28
2022-10-14T10:43:36.427Z,54.57
2022-10-14T10:46:30.932Z,54.50
2022-10-14T10:49:06.938Z,54.79
2022-10-14T10:51:42.104Z,54.64
2022-10-14T10:54:25.847Z,54.60
2022-10-14T10:56:58.743Z,54.36
2022-10-14T10:59:38.248Z,54.99
2022-10-14T11:02:33.368Z,55.59
2022-10-14T11:05:10.584Z,56.64
2022-10-14T11:08:08.863Z,56.54
2022-10-14T11:11:02.222Z,56.32
2022-10-14T11:13:43.268Z,56.31
2022-10-14T11:16:16.838Z,55.51
2022-10-14T11:18:49.637Z,56.20
2022-10-14T11:21:27.162Z,56.16
2022-10-14T11:24:07.154Z,55.22
2022-10-14T11:27:00.688Z,55.64
2022-10-14T11:29:46.634Z,55.67
2022-10-14T11:32:23.278Z,54.29
2022-10-14T11:35:07.374Z,53.53
2022-10-14T11:37:48.182Z,53.54
2022-10-14T11:40:25.705Z,52.19
2022-10-14T11:43:08.993Z,52.55
2022-10-14T11:45:47.685Z,53.04
2022-10-14T11:48:26.883Z,52.56
2022-10-14T11:50:59.172Z,52.09
2022-10-14T11:53:43.436Z,51.69
2022-10-14T11:56:29.305Z,51.92
2022-10-14T11:59:03.114Z,51.64
2022-10-14T12:01:35.813Z,51.58
2022-10-14T12:04:17.551Z,52.34
2022-10-14T12:06:50.125Z,51.90
2022-10-14T12:09:25.104Z,52.07
2022-10-14T12:11:59.090Z,52.10
2022-10-14T12:14:33.922Z,51.59
2022-10-14T12:17:05.295Z,51.94
2022-10-14T12:19:33.929Z,52.81
2022-10-14T12:22:10.842Z,52.99
2022-10-14T12:24:43.010Z,52.12
2022-10-14T12:27:15.383Z,52.64
2022-10-14T12:29:47.843Z,53.56
2022-10-14T12:32:24.297Z,53.51
2022-10-14T12:34:54.855Z,53.83
2022-10-14T12:37:51.215Z,53.82
2022-10-14T12:40:29.962Z,54.17
2022-10-14T12:43:05.073Z,54.77
2022-10-14T12:45:35.898Z,54.36
2022-10-14T12:48:08.626Z,54.36
2022-10-14T12:50:39.309Z,54.97
2022-10-14T12:53:16.703Z,55.87
2022-10-14T12:55:51.109Z,56.48
2022-10-14T12:58:26.339Z,56.89
2022-10-14T13:01:01.790Z,57.11
2022-10-14T13:03:33.944Z,56.85
2022-10-14T13:06:36.809Z,58.12
2022-10-14T13:09:35.789Z,58.97
2022-10-14T13:12:42.094Z,60.72
2022-10-14T13:15:49.748Z,61.77
2022-10-14T13:18:52.743Z,61.65
2022-10-14T13:21:52.373Z,62.31
2022-10-14T13:24:28.084Z,63.16
2022-10-14T13:27:16.009Z,63.32
2022-10-14T13:30:02.074Z,63.49
2022-10-14T13:32:41.951Z,63.66
2022-10-14T13:35:22.877Z,64.39
2022-10-14T13:37:57.876Z,65.05
2022-10-14T13:40:30.225Z,65.18
2022-10-14T13:42:59.872Z,65.56
2022-10-14T13:45:38.283Z,66.49
2022-10-14T13:48:16.973Z,67.82
2022-10-14T13:50:48.063Z,68.87
2022-10-14T13:53:17.914Z,67.67
2022-10-14T13:55:51.622Z,68.88
2022-10-14T13:58:24.010Z,68.01
2022-10-14T14:01:01.442Z,67.26
2022-10-14T14:03:35.381Z,65.96
2022-10-14T14:06:10.760Z,65.37
2022-10-14T14:08:46.997Z,65.64
2022-10-14T14:11:20.087Z,64.58
2022-10-14T14:13:58.934Z,63.42
2022-10-14T14:16:32.282Z,63.54
2022-10-14T14:19:10.134Z,62.65
2022-10-14T14:21:39.372Z,62.97
2022-10-14T14:24:18.016Z,62.54
2022-10-14T14:26:54.943Z,62.75
2022-10-14T14:29:28.002Z,62.48
2022-10-14T14:32:12.622Z,62.04
2022-10-14T14:34:45.558Z,62.60
2022-10-14T14:37:47.720Z,63.03
2022-10-14T14:40:19.281Z,63.47
2022-10-14T14:42:49.207Z,63.18
2022-10-14T14:45:21.858Z,63.57
2022-10-14T14:47:54.179Z,64.35
2022-10-14T14:50:32.699Z,64.63
2022-10-14T14:53:04.305Z,63.99
2022-10-14T14:55:43.214Z,63.87
2022-10-14T14:58:35.259Z,64.61
2022-10-14T15:01:04.051Z,64.04
2022-10-14T15:03:34.577Z,64.39
2022-10-14T15:06:06.641Z,64.92
2022-10-14T15:08:38.169Z,66.92
2022-10-14T15:11:06.589Z,66.89
2022-10-14T15:13:48.736Z,66.39
2022-10-14T15:16:40.234Z,66.99
2022-10-14T15:19:35.653Z,67.92
2022-10-14T15:22:32.630Z,68.30
2022-10-14T15:25:03.567Z,69.13
2022-10-14T15:27:42.987Z,70.56
2022-10-14T15:30:36.311Z,70.95
2022-10-14T15:33:14.781Z,71.09
2022-10-14T15:35:43.867Z,71.00
2022-10-14T15:38:16.826Z,71.40
2022-10-14T15:40:46.127Z,71.63
2022-10-14T15:43:17.928Z,72.07
2022-10-14T15:46:11.716Z,72.57
2022-10-14T15:48:39.338Z,72.88
2022-10-14T15:51:07.507Z,72.78
2022-10-14T15:53:36.843Z,73.76
2022-10-14T15:56:04.841Z,74.07
2022-10-14T15:58:33.880Z,74.66
2022-10-14T16:01:02.733Z,74.97
2022-10-14T16:03:34.796Z,74.70
2022-10-14T16:06:11.138Z,74.88
2022-10-14T16:08:41.356Z,75.44
2022-10-14T16:11:18.544Z,75.72
2022-10-14T16:13:46.633Z,76.61
2022-10-14T16:16:16.455Z,76.23
2022-10-14T16:18:44.515Z,76.74
2022-10-14T16:21:16.437Z,77.07
2022-10-14T16:23:45.767Z,77.14
2022-10-14T16:26:14.521Z,77.71
2022-10-14T16:28:42.624Z,78.02
2022-10-14T16:31:13.570Z,77.89
2022-10-14T16:33:44.856Z,77.79
2022-10-14T16:36:15.861Z,78.04
2022-10-14T16:38:45.326Z,78.26
2022-10-14T16:41:13.475Z,78.84
2022-10-14T16:43:41.491Z,79.60
2022-10-14T16:46:15.407Z,79.95
2022-10-14T16:48:44.663Z,80.06
2022-10-14T16:51:12.704Z,80.28
2022-10-14T16:53:45.233Z,80.91
2022-10-14T16:56:34.941Z,80.71
2022-10-14T16:59:03.809Z,80.94
2022-10-14T17:01:32.047Z,81.30
2022-10-14T17:04:00.415Z,80.63
2022-10-14T17:06:28.524Z,81.05
2022-10-14T17:08:56.509Z,81.58
2022-10-14T17:11:27.443Z,81.43
2022-10-14T17:13:58.721Z,82.27
2022-10-14T17:16:28.545Z,81.39
2022-10-14T17:18:56.745Z,81.65
2022-10-14T17:21:28.187Z,81.19
2022-10-14T17:23:57.528Z,81.09
2022-10-14T17:26:27.575Z,80.40
2022-10-14T17:28:55.586Z,80.54
2022-10-14T17:31:24.599Z,80.59
2022-10-14T17:33:53.430Z,80.72
2022-10-14T17:36:23.878Z,80.86
2022-10-14T17:38:52.675Z,81.13
2022-10-14T17:41:20.700Z,80.28
2022-10-14T17:43:52.323Z,80.44
2022-10-14T17:46:23.878Z,80.85
2022-10-14T17:48:53.281Z,80.91
2022-10-14T17:51:23.625Z,81.37
2022-10-14T17:53:54.878Z,81.48
2022-10-14T17:56:22.878Z,81.86
2022-10-14T17:58:55.533Z,81.42
2022-10-14T18:01:36.932Z,80.84
2022-10-14T18:04:06.926Z,81.67
2022-10-14T18:06:37.084Z,82.01
2022-10-14T18:09:07.105Z,81.89
2022-10-14T18:12:03.904Z,81.74
2022-10-14T18:14:30.019Z,81.44
2022-10-14T18:16:59.526Z,81.08
2022-10-14T18:19:28.154Z,81.63
2022-10-14T18:21:56.163Z,81.16
2022-10-14T18:24:24.171Z,80.87
2022-10-14T18:26:52.680Z,81.04
2022-10-14T18:29:20.704Z,82.09
2022-10-14T18:34:27.492Z,82.80
2022-10-14T18:36:55.546Z,82.34
2022-10-14T18:39:23.698Z,82.56
2022-10-14T18:41:51.678Z,81.78
2022-10-14T18:44:19.947Z,81.25
2022-10-14T18:46:48.681Z,81.30
2022-10-14T18:49:18.055Z,80.20
2022-10-14T18:51:46.501Z,80.20
2022-10-14T18:54:16.402Z,80.59
2022-10-14T18:56:45.286Z,80.70
2022-10-14T18:59:14.918Z,81.45
2022-10-14T19:01:43.735Z,81.12
2022-10-14T19:04:13.902Z,80.85
2022-10-14T19:06:44.961Z,80.99
2022-10-14T19:09:13.922Z,80.59
2022-10-14T19:11:43.317Z,80.18
2022-10-14T19:14:11.339Z,80.69
2022-10-14T19:16:40.376Z,80.52
2022-10-14T19:19:11.747Z,80.91
2022-10-14T19:21:40.145Z,81.41
2022-10-14T19:24:11.189Z,81.11
2022-10-14T19:26:41.347Z,80.37
2022-10-14T19:29:11.747Z,80.82
2022-10-14T19:31:40.875Z,80.57
2022-10-14T19:34:12.595Z,80.78
2022-10-14T19:36:41.657Z,80.48
2022-10-14T19:39:14.176Z,80.27
2022-10-14T19:41:44.949Z,79.53
2022-10-14T19:44:14.182Z,79.56
2022-10-14T19:46:42.989Z,79.47
2022-10-14T19:49:13.521Z,79.53
2022-10-14T19:51:41.811Z,79.80
2022-10-14T19:54:12.802Z,79.36
2022-10-14T19:56:40.924Z,79.35
2022-10-14T19:59:09.256Z,79.51
2022-10-14T20:01:37.334Z,79.95
2022-10-14T20:04:05.475Z,81.11
2022-10-14T20:06:35.795Z,80.35
2022-10-14T20:09:04.337Z,79.68
2022-10-14T20:11:34.551Z,79.51
2022-10-14T20:14:02.560Z,78.82
2022-10-14T20:16:30.582Z,79.40
2022-10-14T20:18:58.709Z,78.74
2022-10-14T20:21:26.925Z,78.58
2022-10-14T20:23:54.858Z,78.83
2022-10-14T20:26:23.201Z,78.51
2022-10-14T20:28:52.653Z,78.24
2022-10-14T20:31:25.146Z,78.72
2022-10-14T20:33:53.187Z,79.20
2022-10-14T20:36:23.608Z,79.90
2022-10-14T20:38:52.274Z,79.38
2022-10-14T20:41:22.344Z,79.06
2022-10-14T20:43:52.402Z,78.40
2022-10-14T20:46:21.884Z,78.41
2022-10-14T20:48:55.076Z,78.87
2022-10-14T20:51:23.601Z,78.77
2022-10-14T20:53:58.548Z,78.01
2022-10-14T20:56:31.384Z,77.81
2022-10-14T20:59:02.384Z,77.82
2022-10-14T21:01:31.082Z,77.45
2022-10-14T21:04:01.819Z,77.78
2022-10-14T21:06:30.337Z,77.75
2022-10-14T21:08:58.631Z,77.53
2022-10-14T21:11:28.052Z,77.54
2022-10-14T21:13:58.691Z,77.65
2022-10-14T21:16:30.103Z,77.67
2022-10-14T21:19:00.080Z,77.55
2022-10-14T21:21:31.408Z,77.42
2022-10-14T21:24:00.087Z,77.55
2022-10-14T21:26:28.134Z,77.67
2022-10-14T21:28:56.191Z,77.47
2022-10-14T21:31:24.264Z,77.60
2022-10-14T21:34:02.555Z,77.81
2022-10-14T21:36:33.462Z,78.43
2022-10-14T21:39:01.963Z,78.74
2022-10-14T21:41:29.991Z,78.78
2022-10-14T21:43:59.368Z,78.79
2022-10-14T21:46:28.405Z,79.07
2022-10-14T21:48:58.910Z,78.96
2022-10-14T21:51:29.139Z,78.92
2022-10-14T21:53:57.664Z,78.70
2022-10-14T21:56:27.345Z,78.69
2022-10-14T21:58:55.699Z,78.71
2022-10-14T22:01:26.177Z,78.66
2022-10-14T22:03:54.926Z,78.37
2022-10-14T22:06:24.568Z,78.24
2022-10-14T22:08:54.908Z,78.39
2022-10-14T22:11:25.370Z,78.39
2022-10-14T22:13:55.306Z,78.57
2022-10-14T22:16:24.232Z,78.79
2022-10-14T22:18:53.856Z,79.03
2022-10-14T22:21:25.506Z,78.93
2022-10-14T22:23:53.901Z,78.50
2022-10-14T22:26:24.068Z,78.74
2022-10-14T22:28:58.848Z,79.50
2022-10-14T22:31:28.417Z,79.70
2022-10-14T22:33:56.504Z,79.48
2022-10-14T22:36:28.937Z,79.32
2022-10-14T22:38:58.643Z,79.51
2022-10-14T22:41:30.923Z,79.56
2022-10-14T22:44:02.359Z,79.56
2022-10-14T22:46:32.424Z,79.79
2022-10-14T22:49:01.974Z,80.72
2022-10-14T22:51:33.261Z,80.80
2022-10-14T22:54:01.406Z,80.51
2022-10-14T22:56:31.098Z,80.68
2022-10-14T22:59:00.996Z,80.81
2022-10-14T23:01:29.747Z,80.77
2022-10-14T23:03:58.741Z,80.72
2022-10-14T23:06:27.645Z,80.70
2022-10-14T23:08:59.895Z,81.34
2022-10-14T23:11:29.221Z,80.93
2022-10-14T23:13:58.281Z,81.31
2022-10-14T23:16:29.219Z,80.73
2022-10-14T23:18:59.618Z,80.83
2022-10-14T23:21:29.900Z,80.69
2022-10-14T23:24:00.938Z,80.62
2022-10-14T23:26:31.724Z,80.48
2022-10-14T23:29:00.732Z,80.41
2022-10-14T23:31:30.534Z,80.63
2022-10-14T23:33:59.340Z,80.87
2022-10-14T23:36:27.501Z,80.71
2022-10-14T23:38:55.653Z,80.75
2022-10-14T23:41:25.229Z,81.09
2022-10-14T23:43:53.524Z,80.77
2022-10-14T23:46:21.854Z,81.06
2022-10-14T23:49:01.092Z,80.80
2022-10-14T23:51:36.189Z,80.66
2022-10-14T23:54:04.383Z,81.05
2022-10-14T23:56:33.738Z,81.35
2022-10-14T23:59:01.781Z,81.62
